createdAt,value
2022-12-05T00:03:05.272Z,97577.00
2022-12-05T00:07:06.376Z,97570.00
2022-12-05T00:11:13.943Z,97574.00
2022-12-05T00:15:15.186Z,97574.00
2022-12-05T00:19:16.260Z,97570.00
2022-12-05T00:23:17.528Z,97568.00
2022-12-05T00:27:18.693Z,97565.00
2022-12-05T00:31:22.222Z,97578.00
2022-12-05T00:35:23.622Z,97578.00
2022-12-05T00:39:24.555Z,97572.00
2022-12-05T00:43:25.558Z,97582.00
2022-12-05T00:47:26.772Z,97582.00
2022-12-05T00:51:30.930Z,97584.00
2022-12-05T00:55:35.732Z,97595.00
2022-12-05T00:59:36.910Z,97594.00
2022-12-05T01:03:38.293Z,97597.00
2022-12-05T01:07:39.475Z,97602.00
2022-12-05T01:11:41.809Z,97616.00
2022-12-05T01:15:42.873Z,97624.00
2022-12-05T01:19:46.274Z,97621.00
2022-12-05T01:23:47.746Z,97620.00
2022-12-05T01:27:48.710Z,97622.00
2022-12-05T01:31:50.376Z,97623.00
2022-12-05T01:35:51.667Z,97632.00
2022-12-05T01:39:52.589Z,97621.00
2022-12-05T01:44:08.980Z,97633.00
2022-12-05T01:48:22.878Z,97622.00
2022-12-05T01:52:27.089Z,97637.00
2022-12-05T01:56:28.423Z,97626.00
2022-12-05T02:00:29.465Z,97621.00
2022-12-05T02:04:32.158Z,97631.00
2022-12-05T02:08:33.193Z,97639.00
2022-12-05T02:12:34.842Z,97632.00
2022-12-05T02:16:58.182Z,97635.00
2022-12-05T02:21:22.863Z,97644.00
2022-12-05T02:25:36.455Z,97650.00
2022-12-05T02:30:13.406Z,97643.00
2022-12-05T02:34:30.353Z,97642.00
2022-12-05T02:38:41.134Z,97655.00
2022-12-05T02:42:55.125Z,97647.00
2022-12-05T02:46:57.881Z,97642.00
2022-12-05T02:51:01.178Z,97646.00
2022-12-05T02:55:03.500Z,97642.00
2022-12-05T02:59:04.692Z,97637.00
2022-12-05T03:03:11.987Z,97633.00
2022-12-05T03:07:14.375Z,97633.00
2022-12-05T03:11:15.530Z,97636.00
2022-12-05T03:15:20.414Z,97640.00
2022-12-05T03:19:25.105Z,97639.00
2022-12-05T03:23:30.051Z,97624.00
2022-12-05T03:27:43.995Z,97638.00
2022-12-05T03:31:54.751Z,97643.00
2022-12-05T03:36:05.370Z,97643.00
2022-12-05T03:40:13.176Z,97647.00
2022-12-05T03:44:18.145Z,97647.00
2022-12-05T03:48:32.394Z,97656.00
2022-12-05T03:52:57.197Z,97651.00
2022-12-05T03:56:46.703Z,97662.00
2022-12-05T04:00:50.684Z,97660.00
2022-12-05T04:05:10.708Z,97667.00
2022-12-05T04:09:18.947Z,97661.00
2022-12-05T04:13:36.229Z,97662.00
2022-12-05T04:17:51.967Z,97674.00
2022-12-05T04:21:53.068Z,97672.00
2022-12-05T04:26:13.112Z,97671.00
2022-12-05T04:30:17.919Z,97676.00
2022-12-05T04:34:20.885Z,97679.00
2022-12-05T04:38:31.895Z,97683.00
2022-12-05T04:42:36.134Z,97688.00
2022-12-05T04:46:40.695Z,97690.00
2022-12-05T04:50:44.257Z,97692.00
2022-12-05T04:54:52.099Z,97690.00
2022-12-05T04:58:54.056Z,97696.00
2022-12-05T05:03:15.515Z,97708.00
2022-12-05T05:07:17.682Z,97702.00
2022-12-05T05:11:25.037Z,97705.00
2022-12-05T05:15:26.280Z,97710.00
2022-12-05T05:19:28.703Z,97699.00
2022-12-05T05:23:29.873Z,97704.00
2022-12-05T05:27:30.871Z,97711.00
2022-12-05T05:31:32.586Z,97720.00
2022-12-05T05:35:36.198Z,97717.00
2022-12-05T05:39:37.452Z,97713.00
2022-12-05T05:43:40.162Z,97720.00
2022-12-05T05:47:42.292Z,97726.00
2022-12-05T05:51:43.452Z,97694.00
2022-12-05T05:55:44.598Z,97717.00
2022-12-05T05:59:46.181Z,97722.00
2022-12-05T06:03:49.320Z,97726.00
2022-12-05T06:07:52.584Z,97736.00
2022-12-05T06:11:53.736Z,97739.00
2022-12-05T06:15:54.998Z,97748.00
2022-12-05T06:19:57.284Z,97745.00
2022-12-05T06:23:58.740Z,97747.00
2022-12-05T06:28:00.095Z,97742.00
2022-12-05T06:32:01.774Z,97741.00
2022-12-05T06:36:08.816Z,97734.00
2022-12-05T06:40:11.943Z,97750.00
2022-12-05T06:44:13.154Z,97742.00
2022-12-05T06:48:14.519Z,97757.00
2022-12-05T06:52:15.728Z,97754.00
2022-12-05T06:56:19.329Z,97749.00
2022-12-05T07:00:39.793Z,97756.00
2022-12-05T07:04:41.103Z,97776.00
2022-12-05T07:08:42.512Z,97773.00
2022-12-05T07:12:43.907Z,97779.00
2022-12-05T07:16:45.536Z,97786.00
2022-12-05T07:21:11.315Z,97778.00
2022-12-05T07:24:53.762Z,97772.00
2022-12-05T07:28:57.075Z,97781.00
2022-12-05T07:32:58.370Z,97789.00
2022-12-05T07:37:00.426Z,97788.00
2022-12-05T07:41:13.559Z,97790.00
2022-12-05T07:45:14.124Z,97793.00
2022-12-05T07:49:18.409Z,97795.00
2022-12-05T07:53:19.623Z,97816.00
2022-12-05T07:57:21.020Z,97806.00
2022-12-05T08:01:25.130Z,97661.00
2022-12-05T08:05:26.495Z,97817.00
2022-12-05T08:09:27.828Z,97817.00
2022-12-05T08:13:29.311Z,97832.00
2022-12-05T08:17:31.788Z,97831.00
2022-12-05T08:21:34.619Z,97839.00
2022-12-05T08:25:36.051Z,97855.00
2022-12-05T08:29:37.307Z,97851.00
2022-12-05T08:33:38.938Z,97850.00
2022-12-05T08:37:40.335Z,97858.00
2022-12-05T08:41:46.703Z,97859.00
2022-12-05T08:45:52.382Z,97863.00
2022-12-05T08:49:53.691Z,97866.00
2022-12-05T08:53:55.963Z,97868.00
2022-12-05T08:57:57.082Z,97879.00
2022-12-05T09:01:58.662Z,97870.00
2022-12-05T09:06:14.299Z,97884.00
2022-12-05T09:10:15.896Z,97878.00
2022-12-05T09:14:17.364Z,97887.00
2022-12-05T09:18:18.646Z,97880.00
2022-12-05T09:22:24.034Z,97895.00
2022-12-05T09:26:27.496Z,97900.00
2022-12-05T09:30:28.793Z,97875.00
2022-12-05T09:34:30.764Z,97913.00
2022-12-05T09:38:32.688Z,97913.00
2022-12-05T09:42:59.031Z,97908.00
2022-12-05T09:47:06.908Z,97898.00
2022-12-05T09:51:10.226Z,97891.00
2022-12-05T09:55:15.331Z,97898.00
2022-12-05T09:59:19.462Z,97906.00
2022-12-05T10:03:42.768Z,97903.00
2022-12-05T10:07:56.854Z,97906.00
2022-12-05T10:12:20.441Z,97897.00
2022-12-05T10:16:25.439Z,97893.00
2022-12-05T10:20:30.375Z,97898.00
2022-12-05T10:24:35.516Z,97897.00
2022-12-05T10:28:43.822Z,97896.00
2022-12-05T10:32:57.241Z,97898.00
2022-12-05T10:37:02.418Z,97892.00
2022-12-05T10:41:06.924Z,97893.00
2022-12-05T10:45:14.394Z,97890.00
2022-12-05T10:49:15.883Z,97886.00
2022-12-05T10:53:21.025Z,97888.00
2022-12-05T10:57:26.134Z,97877.00
2022-12-05T11:01:28.416Z,97884.00
2022-12-05T11:05:32.304Z,97877.00
2022-12-05T11:09:37.033Z,97876.00
2022-12-05T11:13:42.081Z,97879.00
2022-12-05T11:17:43.543Z,97890.00
2022-12-05T11:21:45.124Z,97882.00
2022-12-05T11:25:46.492Z,97887.00
2022-12-05T11:30:03.712Z,97883.00
2022-12-05T11:34:20.090Z,97886.00
2022-12-05T11:38:25.013Z,97883.00
2022-12-05T11:42:32.683Z,97879.00
2022-12-05T11:46:45.514Z,97883.00
2022-12-05T11:51:02.448Z,97884.00
2022-12-05T11:55:16.107Z,97880.00
2022-12-05T11:59:21.035Z,97888.00
2022-12-05T12:03:33.857Z,97887.00
2022-12-05T12:08:01.683Z,97880.00
2022-12-05T12:12:26.668Z,97882.00
2022-12-05T12:16:49.999Z,97882.00
2022-12-05T12:20:58.062Z,97883.00
2022-12-05T12:25:23.157Z,97881.00
2022-12-05T12:29:45.918Z,97879.00
2022-12-05T12:33:57.012Z,97889.00
2022-12-05T12:38:10.905Z,97881.00
2022-12-05T12:42:22.246Z,97808.00
2022-12-05T12:46:49.909Z,97884.00
2022-12-05T12:50:53.538Z,97883.00
2022-12-05T12:55:18.275Z,97887.00
2022-12-05T12:59:26.540Z,97881.00
2022-12-05T13:03:48.371Z,97893.00
2022-12-05T13:07:57.453Z,97895.00
2022-12-05T13:12:02.384Z,97882.00
2022-12-05T13:16:07.211Z,97884.00
2022-12-05T13:20:18.216Z,97874.00
2022-12-05T13:24:22.281Z,97882.00
2022-12-05T13:28:30.082Z,97885.00
2022-12-05T13:32:35.633Z,97893.00
2022-12-05T13:36:59.958Z,97889.00
2022-12-05T13:41:19.601Z,97903.00
2022-12-05T13:45:21.918Z,97910.00
2022-12-05T13:49:45.062Z,97907.00
2022-12-05T13:53:50.097Z,97905.00
2022-12-05T13:57:55.843Z,97904.00
2022-12-05T14:01:57.151Z,97903.00
2022-12-05T14:05:58.573Z,97901.00
2022-12-05T14:10:00.456Z,97907.00
2022-12-05T14:14:04.917Z,97909.00
2022-12-05T14:18:17.605Z,97909.00
2022-12-05T14:22:28.395Z,97905.00
2022-12-05T14:26:39.125Z,97906.00
2022-12-05T14:30:47.451Z,97915.00
2022-12-05T14:34:58.538Z,97919.00
2022-12-05T14:39:00.000Z,97926.00
2022-12-05T14:43:24.117Z,97926.00
2022-12-05T14:47:32.423Z,97926.00
2022-12-05T14:51:37.584Z,97920.00
2022-12-05T14:55:38.927Z,97918.00
2022-12-05T14:59:46.806Z,97925.00
2022-12-05T15:04:10.972Z,97924.00
2022-12-05T15:08:15.278Z,97925.00
2022-12-05T15:12:36.487Z,97927.00
2022-12-05T15:16:41.611Z,97924.00
2022-12-05T15:21:11.265Z,97924.00
2022-12-05T15:25:31.661Z,97909.00
2022-12-05T15:29:33.307Z,97924.00
2022-12-05T15:33:34.902Z,97930.00
2022-12-05T15:37:55.190Z,97930.00
2022-12-05T15:41:57.414Z,97939.00
2022-12-05T15:46:11.675Z,97935.00
2022-12-05T15:50:15.659Z,97929.00
2022-12-05T15:54:24.888Z,97933.00
2022-12-05T15:58:33.397Z,97928.00
2022-12-05T16:02:44.405Z,97934.00
2022-12-05T16:06:52.250Z,97933.00
2022-12-05T16:10:53.665Z,97933.00
2022-12-05T16:15:00.361Z,97938.00
2022-12-05T16:19:07.542Z,97949.00
2022-12-05T16:23:24.324Z,97940.00
2022-12-05T16:27:34.908Z,97942.00
2022-12-05T16:31:36.531Z,97943.00
2022-12-05T16:35:43.412Z,97939.00
2022-12-05T16:39:45.830Z,97946.00
2022-12-05T16:43:47.268Z,97944.00
2022-12-05T16:47:55.055Z,97947.00
2022-12-05T16:52:03.249Z,97957.00
2022-12-05T16:56:06.623Z,97958.00
2022-12-05T17:00:16.188Z,97962.00
2022-12-05T17:04:17.635Z,97946.00
2022-12-05T17:08:19.014Z,97952.00
2022-12-05T17:12:24.342Z,97957.00
2022-12-05T17:16:26.619Z,97955.00
2022-12-05T17:20:28.280Z,97958.00
2022-12-05T17:24:29.549Z,97874.00
2022-12-05T17:28:31.081Z,97959.00
2022-12-05T17:32:32.610Z,97956.00
2022-12-05T17:36:34.600Z,97961.00
2022-12-05T17:40:37.240Z,97960.00
2022-12-05T17:44:38.724Z,97956.00
2022-12-05T17:48:39.916Z,97962.00
2022-12-05T17:52:41.880Z,97971.00
2022-12-05T17:56:43.143Z,97971.00
2022-12-05T18:00:46.163Z,97971.00
2022-12-05T18:04:47.801Z,97970.00
2022-12-05T18:08:49.245Z,97977.00
2022-12-05T18:12:51.134Z,97976.00
2022-12-05T18:16:52.745Z,97976.00
2022-12-05T18:20:54.377Z,97964.00
2022-12-05T18:24:57.694Z,97971.00
2022-12-05T18:28:59.078Z,97972.00
2022-12-05T18:33:00.482Z,97967.00
2022-12-05T18:37:01.843Z,97970.00
2022-12-05T18:41:05.508Z,97973.00
2022-12-05T18:45:07.888Z,97969.00
2022-12-05T18:49:12.463Z,97970.00
2022-12-05T18:53:13.751Z,97971.00
2022-12-05T18:57:15.121Z,97974.00
2022-12-05T19:01:16.359Z,97975.00
2022-12-05T19:05:18.893Z,97973.00
2022-12-05T19:09:22.360Z,97974.00
2022-12-05T19:13:24.005Z,97973.00
2022-12-05T19:17:25.576Z,97970.00
2022-12-05T19:21:30.300Z,97972.00
2022-12-05T19:25:31.622Z,97976.00
2022-12-05T19:29:32.851Z,97966.00
2022-12-05T19:33:37.285Z,97975.00
2022-12-05T19:37:38.932Z,97995.00
2022-12-05T19:41:41.062Z,97973.00
2022-12-05T19:45:42.388Z,97973.00
2022-12-05T19:49:43.880Z,97980.00
2022-12-05T19:53:47.023Z,97978.00
2022-12-05T19:57:48.431Z,97984.00
2022-12-05T20:01:50.398Z,97990.00
2022-12-05T20:05:58.840Z,97988.00
2022-12-05T20:10:00.497Z,97988.00
2022-12-05T20:14:02.047Z,97995.00
2022-12-05T20:18:03.364Z,97987.00
2022-12-05T20:22:04.760Z,97993.00
2022-12-05T20:26:11.869Z,97987.00
2022-12-05T20:30:13.413Z,97990.00
2022-12-05T20:34:15.016Z,97997.00
2022-12-05T20:38:16.279Z,97995.00
2022-12-05T20:42:17.702Z,97991.00
2022-12-05T20:46:21.411Z,97989.00
2022-12-05T20:50:22.802Z,97993.00
2022-12-05T20:54:24.320Z,97996.00
2022-12-05T20:58:25.571Z,97990.00
2022-12-05T21:02:27.038Z,97987.00
2022-12-05T21:06:31.223Z,97991.00
2022-12-05T21:10:32.557Z,97982.00
2022-12-05T21:14:34.043Z,97987.00
2022-12-05T21:18:35.863Z,97986.00
2022-12-05T21:22:37.151Z,97986.00
2022-12-05T21:26:39.256Z,97993.00
2022-12-05T21:30:40.962Z,97993.00
2022-12-05T21:34:42.379Z,97989.00
2022-12-05T21:38:43.895Z,97992.00
2022-12-05T21:42:45.040Z,97986.00
2022-12-05T21:46:46.593Z,97982.00
2022-12-05T21:50:48.408Z,97986.00
2022-12-05T21:54:49.487Z,97990.00
2022-12-05T21:58:51.437Z,97991.00
2022-12-05T22:02:53.834Z,97999.00
2022-12-05T22:06:54.976Z,97992.00
2022-12-05T22:11:07.514Z,97999.00
2022-12-05T22:15:09.813Z,97999.00
2022-12-05T22:19:10.904Z,98003.00
2022-12-05T22:23:16.613Z,97987.00
2022-12-05T22:27:15.333Z,97993.00
2022-12-05T22:31:17.885Z,97988.00
2022-12-05T22:35:19.057Z,97983.00
2022-12-05T22:39:20.219Z,97987.00
2022-12-05T22:43:22.043Z,97986.00
2022-12-05T22:47:23.173Z,97986.00
2022-12-05T22:51:26.110Z,97988.00
2022-12-05T22:55:27.218Z,97906.00
2022-12-05T22:59:28.488Z,97986.00
2022-12-05T23:03:29.853Z,97985.00
2022-12-05T23:07:31.241Z,97983.00
2022-12-05T23:11:32.735Z,97978.00
2022-12-05T23:15:35.837Z,97972.00
2022-12-05T23:19:36.924Z,97959.00
2022-12-05T23:23:39.590Z,97973.00
2022-12-05T23:27:40.883Z,97970.00
2022-12-05T23:31:42.719Z,97964.00
2022-12-05T23:35:44.112Z,97960.00
2022-12-05T23:39:45.190Z,97966.00
2022-12-05T23:43:48.909Z,97965.00
2022-12-05T23:47:50.113Z,97964.00
2022-12-05T23:51:51.962Z,97960.00
2022-12-05T23:55:53.067Z,97962.00
2022-12-05T23:59:54.455Z,97962.00
